sensor_id;sensor_type;location;lat;lon;timestamp;P1;durP1;ratioP1;P2;durP2;ratioP2
76127;SDS011;64873;50.102;14.434;2023-01-04T00:00:46;22.33;;;11.98;;
76127;SDS011;64873;50.102;14.434;2023-01-04T00:03:12;25.52;;;12.18;;
76127;SDS011;64873;50.102;14.434;2023-01-04T00:05:37;20.63;;;11.98;;
76127;SDS011;64873;50.102;14.434;2023-01-04T00:08:03;23.40;;;11.45;;
76127;SDS011;64873;50.102;14.434;2023-01-04T00:10:28;24.65;;;11.95;;
76127;SDS011;64873;50.102;14.434;2023-01-04T00:12:54;22.38;;;12.32;;
76127;SDS011;64873;50.102;14.434;2023-01-04T00:15:19;22.52;;;11.23;;
76127;SDS011;64873;50.102;14.434;2023-01-04T00:17:45;23.17;;;11.82;;
76127;SDS011;64873;50.102;14.434;2023-01-04T00:20:10;23.27;;;11.93;;
76127;SDS011;64873;50.102;14.434;2023-01-04T00:22:35;24.65;;;11.70;;
76127;SDS011;64873;50.102;14.434;2023-01-04T00:25:01;25.40;;;12.95;;
76127;SDS011;64873;50.102;14.434;2023-01-04T00:27:26;23.02;;;11.80;;
76127;SDS011;64873;50.102;14.434;2023-01-04T00:29:51;20.13;;;10.98;;
76127;SDS011;64873;50.102;14.434;2023-01-04T00:32:17;23.67;;;11.75;;
76127;SDS011;64873;50.102;14.434;2023-01-04T00:34:42;23.48;;;11.50;;
76127;SDS011;64873;50.102;14.434;2023-01-04T00:37:08;22.63;;;11.15;;
76127;SDS011;64873;50.102;14.434;2023-01-04T00:39:33;27.15;;;12.65;;
76127;SDS011;64873;50.102;14.434;2023-01-04T00:41:58;19.73;;;10.30;;
76127;SDS011;64873;50.102;14.434;2023-01-04T00:44:29;23.60;;;11.63;;
76127;SDS011;64873;50.102;14.434;2023-01-04T00:46:57;22.48;;;11.25;;
76127;SDS011;64873;50.102;14.434;2023-01-04T00:49:23;21.77;;;10.65;;
76127;SDS011;64873;50.102;14.434;2023-01-04T00:51:49;26.73;;;11.52;;
76127;SDS011;64873;50.102;14.434;2023-01-04T00:54:14;21.20;;;11.25;;
76127;SDS011;64873;50.102;14.434;2023-01-04T00:56:40;20.45;;;10.55;;
76127;SDS011;64873;50.102;14.434;2023-01-04T00:59:06;22.33;;;10.52;;
76127;SDS011;64873;50.102;14.434;2023-01-04T01:01:33;17.83;;;10.15;;
76127;SDS011;64873;50.102;14.434;2023-01-04T01:04:00;20.00;;;11.18;;
76127;SDS011;64873;50.102;14.434;2023-01-04T01:06:27;19.52;;;11.07;;
76127;SDS011;64873;50.102;14.434;2023-01-04T01:08:54;21.23;;;10.48;;
76127;SDS011;64873;50.102;14.434;2023-01-04T01:11:20;23.73;;;10.50;;
76127;SDS011;64873;50.102;14.434;2023-01-04T01:13:46;19.13;;;10.88;;
76127;SDS011;64873;50.102;14.434;2023-01-04T01:16:13;21.17;;;10.85;;
76127;SDS011;64873;50.102;14.434;2023-01-04T01:18:44;22.48;;;10.07;;
76127;SDS011;64873;50.102;14.434;2023-01-04T01:21:11;19.77;;;10.00;;
76127;SDS011;64873;50.102;14.434;2023-01-04T01:23:38;15.55;;;8.93;;
76127;SDS011;64873;50.102;14.434;2023-01-04T01:26:06;17.58;;;9.02;;
76127;SDS011;64873;50.102;14.434;2023-01-04T01:28:34;21.45;;;9.52;;
76127;SDS011;64873;50.102;14.434;2023-01-04T01:31:10;16.20;;;8.93;;
76127;SDS011;64873;50.102;14.434;2023-01-04T01:33:39;16.25;;;9.02;;
76127;SDS011;64873;50.102;14.434;2023-01-04T01:36:06;19.48;;;9.35;;
76127;SDS011;64873;50.102;14.434;2023-01-04T01:38:32;17.60;;;8.63;;
76127;SDS011;64873;50.102;14.434;2023-01-04T01:40:58;17.40;;;9.88;;
76127;SDS011;64873;50.102;14.434;2023-01-04T01:46:11;18.17;;;9.88;;
76127;SDS011;64873;50.102;14.434;2023-01-04T01:48:38;18.80;;;9.05;;
76127;SDS011;64873;50.102;14.434;2023-01-04T01:51:05;18.83;;;9.27;;
76127;SDS011;64873;50.102;14.434;2023-01-04T01:53:31;22.20;;;9.65;;
76127;SDS011;64873;50.102;14.434;2023-01-04T01:55:59;21.65;;;10.38;;
76127;SDS011;64873;50.102;14.434;2023-01-04T01:58:31;20.02;;;9.50;;
76127;SDS011;64873;50.102;14.434;2023-01-04T02:01:00;17.15;;;9.48;;
76127;SDS011;64873;50.102;14.434;2023-01-04T02:03:28;21.45;;;10.20;;
76127;SDS011;64873;50.102;14.434;2023-01-04T02:05:56;20.23;;;9.52;;
76127;SDS011;64873;50.102;14.434;2023-01-04T02:08:24;23.35;;;10.10;;
76127;SDS011;64873;50.102;14.434;2023-01-04T02:10:50;17.98;;;9.30;;
76127;SDS011;64873;50.102;14.434;2023-01-04T02:13:16;17.65;;;9.40;;
76127;SDS011;64873;50.102;14.434;2023-01-04T02:15:52;18.38;;;9.73;;
76127;SDS011;64873;50.102;14.434;2023-01-04T02:18:36;20.13;;;9.40;;
76127;SDS011;64873;50.102;14.434;2023-01-04T02:21:16;16.70;;;9.68;;
76127;SDS011;64873;50.102;14.434;2023-01-04T02:24:25;16.67;;;9.20;;
76127;SDS011;64873;50.102;14.434;2023-01-04T02:27:12;18.30;;;9.48;;
76127;SDS011;64873;50.102;14.434;2023-01-04T02:29:59;22.40;;;9.55;;
76127;SDS011;64873;50.102;14.434;2023-01-04T02:35:43;21.65;;;10.85;;
76127;SDS011;64873;50.102;14.434;2023-01-04T02:43:51;21.17;;;10.43;;
76127;SDS011;64873;50.102;14.434;2023-01-04T02:46:44;18.20;;;9.55;;
76127;SDS011;64873;50.102;14.434;2023-01-04T02:49:15;18.90;;;9.98;;
76127;SDS011;64873;50.102;14.434;2023-01-04T02:51:59;19.10;;;9.70;;
76127;SDS011;64873;50.102;14.434;2023-01-04T02:54:25;16.73;;;9.68;;
76127;SDS011;64873;50.102;14.434;2023-01-04T02:57:07;18.55;;;10.30;;
76127;SDS011;64873;50.102;14.434;2023-01-04T03:00:03;20.85;;;10.23;;
76127;SDS011;64873;50.102;14.434;2023-01-04T03:11:04;18.83;;;9.75;;
76127;SDS011;64873;50.102;14.434;2023-01-04T03:13:59;20.38;;;10.45;;
76127;SDS011;64873;50.102;14.434;2023-01-04T03:16:47;17.85;;;9.50;;
76127;SDS011;64873;50.102;14.434;2023-01-04T03:19:16;16.17;;;10.27;;
76127;SDS011;64873;50.102;14.434;2023-01-04T03:22:04;18.10;;;9.63;;
76127;SDS011;64873;50.102;14.434;2023-01-04T03:24:50;21.30;;;10.82;;
76127;SDS011;64873;50.102;14.434;2023-01-04T03:27:36;19.63;;;10.40;;
76127;SDS011;64873;50.102;14.434;2023-01-04T03:30:21;20.23;;;10.30;;
76127;SDS011;64873;50.102;14.434;2023-01-04T03:33:10;19.27;;;10.23;;
76127;SDS011;64873;50.102;14.434;2023-01-04T03:36:05;16.65;;;8.80;;
76127;SDS011;64873;50.102;14.434;2023-01-04T03:38:43;18.48;;;9.52;;
76127;SDS011;64873;50.102;14.434;2023-01-04T03:41:54;15.63;;;9.38;;
76127;SDS011;64873;50.102;14.434;2023-01-04T03:44:51;18.85;;;9.75;;
76127;SDS011;64873;50.102;14.434;2023-01-04T03:47:45;15.63;;;10.05;;
76127;SDS011;64873;50.102;14.434;2023-01-04T03:50:38;21.35;;;10.52;;
76127;SDS011;64873;50.102;14.434;2023-01-04T03:53:08;16.13;;;9.43;;
76127;SDS011;64873;50.102;14.434;2023-01-04T03:55:36;16.05;;;9.43;;
76127;SDS011;64873;50.102;14.434;2023-01-04T03:58:05;19.02;;;9.85;;
76127;SDS011;64873;50.102;14.434;2023-01-04T04:00:31;20.10;;;10.32;;
76127;SDS011;64873;50.102;14.434;2023-01-04T04:02:57;17.98;;;8.85;;
76127;SDS011;64873;50.102;14.434;2023-01-04T04:05:31;16.90;;;9.02;;
76127;SDS011;64873;50.102;14.434;2023-01-04T04:08:18;16.85;;;9.40;;
76127;SDS011;64873;50.102;14.434;2023-01-04T04:10:56;16.02;;;8.63;;
76127;SDS011;64873;50.102;14.434;2023-01-04T04:13:45;14.10;;;8.60;;
76127;SDS011;64873;50.102;14.434;2023-01-04T04:16:12;20.15;;;9.20;;
76127;SDS011;64873;50.102;14.434;2023-01-04T04:18:38;16.80;;;9.07;;
76127;SDS011;64873;50.102;14.434;2023-01-04T04:21:06;15.38;;;9.05;;
76127;SDS011;64873;50.102;14.434;2023-01-04T04:23:32;18.23;;;8.63;;
76127;SDS011;64873;50.102;14.434;2023-01-04T04:26:06;16.17;;;8.18;;
76127;SDS011;64873;50.102;14.434;2023-01-04T04:28:32;15.95;;;8.43;;
76127;SDS011;64873;50.102;14.434;2023-01-04T04:30:57;12.75;;;7.57;;
76127;SDS011;64873;50.102;14.434;2023-01-04T04:33:26;12.95;;;7.90;;
76127;SDS011;64873;50.102;14.434;2023-01-04T04:35:52;14.23;;;8.30;;
76127;SDS011;64873;50.102;14.434;2023-01-04T04:38:21;14.93;;;8.38;;
76127;SDS011;64873;50.102;14.434;2023-01-04T04:40:48;16.23;;;7.80;;
76127;SDS011;64873;50.102;14.434;2023-01-04T04:43:32;16.50;;;8.18;;
76127;SDS011;64873;50.102;14.434;2023-01-04T04:46:04;16.00;;;8.45;;
76127;SDS011;64873;50.102;14.434;2023-01-04T04:48:30;17.27;;;8.27;;
76127;SDS011;64873;50.102;14.434;2023-01-04T04:50:55;12.85;;;7.72;;
76127;SDS011;64873;50.102;14.434;2023-01-04T04:53:24;17.33;;;8.25;;
76127;SDS011;64873;50.102;14.434;2023-01-04T04:55:50;17.77;;;7.82;;
76127;SDS011;64873;50.102;14.434;2023-01-04T04:58:19;13.70;;;7.95;;
76127;SDS011;64873;50.102;14.434;2023-01-04T05:00:48;12.23;;;7.43;;
76127;SDS011;64873;50.102;14.434;2023-01-04T05:03:14;13.85;;;7.55;;
76127;SDS011;64873;50.102;14.434;2023-01-04T05:05:39;13.65;;;7.53;;
76127;SDS011;64873;50.102;14.434;2023-01-04T05:08:11;12.47;;;7.67;;
76127;SDS011;64873;50.102;14.434;2023-01-04T05:10:37;12.15;;;7.25;;
76127;SDS011;64873;50.102;14.434;2023-01-04T05:13:03;13.23;;;7.93;;
76127;SDS011;64873;50.102;14.434;2023-01-04T05:15:40;13.57;;;7.47;;
76127;SDS011;64873;50.102;14.434;2023-01-04T05:18:09;15.07;;;8.23;;
76127;SDS011;64873;50.102;14.434;2023-01-04T05:20:36;12.45;;;7.07;;
76127;SDS011;64873;50.102;14.434;2023-01-04T05:23:02;19.08;;;7.95;;
76127;SDS011;64873;50.102;14.434;2023-01-04T05:25:29;12.45;;;7.15;;
76127;SDS011;64873;50.102;14.434;2023-01-04T05:28:04;13.85;;;7.13;;
76127;SDS011;64873;50.102;14.434;2023-01-04T05:30:33;12.00;;;7.17;;
76127;SDS011;64873;50.102;14.434;2023-01-04T05:33:22;12.93;;;7.18;;
76127;SDS011;64873;50.102;14.434;2023-01-04T05:35:50;10.93;;;6.63;;
76127;SDS011;64873;50.102;14.434;2023-01-04T05:38:17;13.10;;;6.63;;
76127;SDS011;64873;50.102;14.434;2023-01-04T05:40:46;13.73;;;6.93;;
76127;SDS011;64873;50.102;14.434;2023-01-04T05:43:12;10.20;;;6.10;;
76127;SDS011;64873;50.102;14.434;2023-01-04T05:45:39;15.77;;;7.22;;
76127;SDS011;64873;50.102;14.434;2023-01-04T05:48:08;13.48;;;7.00;;
76127;SDS011;64873;50.102;14.434;2023-01-04T05:50:55;12.57;;;7.25;;
76127;SDS011;64873;50.102;14.434;2023-01-04T05:53:23;11.52;;;6.50;;
76127;SDS011;64873;50.102;14.434;2023-01-04T05:55:49;12.85;;;6.88;;
76127;SDS011;64873;50.102;14.434;2023-01-04T05:58:20;13.40;;;6.43;;
76127;SDS011;64873;50.102;14.434;2023-01-04T06:00:46;11.43;;;6.18;;
76127;SDS011;64873;50.102;14.434;2023-01-04T06:03:11;12.30;;;6.85;;
76127;SDS011;64873;50.102;14.434;2023-01-04T06:05:36;10.73;;;6.45;;
76127;SDS011;64873;50.102;14.434;2023-01-04T06:08:02;13.05;;;6.00;;
76127;SDS011;64873;50.102;14.434;2023-01-04T06:10:28;14.90;;;6.45;;
76127;SDS011;64873;50.102;14.434;2023-01-04T06:12:54;12.50;;;6.80;;
76127;SDS011;64873;50.102;14.434;2023-01-04T06:15:22;11.60;;;5.60;;
76127;SDS011;64873;50.102;14.434;2023-01-04T06:17:48;13.02;;;6.50;;
76127;SDS011;64873;50.102;14.434;2023-01-04T06:20:13;12.98;;;6.05;;
76127;SDS011;64873;50.102;14.434;2023-01-04T06:22:39;11.05;;;5.70;;
76127;SDS011;64873;50.102;14.434;2023-01-04T06:25:07;10.63;;;6.22;;
76127;SDS011;64873;50.102;14.434;2023-01-04T06:27:40;11.15;;;6.40;;
76127;SDS011;64873;50.102;14.434;2023-01-04T06:30:05;10.05;;;6.35;;
76127;SDS011;64873;50.102;14.434;2023-01-04T06:32:31;11.65;;;6.35;;
76127;SDS011;64873;50.102;14.434;2023-01-04T06:35:21;12.10;;;6.45;;
76127;SDS011;64873;50.102;14.434;2023-01-04T06:37:46;13.35;;;6.07;;
76127;SDS011;64873;50.102;14.434;2023-01-04T06:40:12;11.30;;;6.50;;
76127;SDS011;64873;50.102;14.434;2023-01-04T06:42:37;10.07;;;5.93;;
76127;SDS011;64873;50.102;14.434;2023-01-04T06:45:08;13.45;;;5.88;;
76127;SDS011;64873;50.102;14.434;2023-01-04T06:47:34;11.35;;;6.20;;
76127;SDS011;64873;50.102;14.434;2023-01-04T06:50:00;10.38;;;6.05;;
76127;SDS011;64873;50.102;14.434;2023-01-04T06:52:25;12.30;;;6.30;;
76127;SDS011;64873;50.102;14.434;2023-01-04T06:54:51;10.43;;;6.32;;
76127;SDS011;64873;50.102;14.434;2023-01-04T06:57:16;16.73;;;6.25;;
76127;SDS011;64873;50.102;14.434;2023-01-04T06:59:42;9.82;;;6.07;;
76127;SDS011;64873;50.102;14.434;2023-01-04T07:02:09;14.80;;;6.30;;
76127;SDS011;64873;50.102;14.434;2023-01-04T07:04:38;17.27;;;5.93;;
76127;SDS011;64873;50.102;14.434;2023-01-04T07:07:04;9.65;;;5.55;;
76127;SDS011;64873;50.102;14.434;2023-01-04T07:09:31;10.80;;;5.70;;
76127;SDS011;64873;50.102;14.434;2023-01-04T07:11:57;19.83;;;6.88;;
76127;SDS011;64873;50.102;14.434;2023-01-04T07:14:23;11.15;;;6.30;;
76127;SDS011;64873;50.102;14.434;2023-01-04T07:16:48;12.80;;;6.55;;
76127;SDS011;64873;50.102;14.434;2023-01-04T07:19:13;10.65;;;6.30;;
76127;SDS011;64873;50.102;14.434;2023-01-04T07:21:39;13.80;;;6.38;;
76127;SDS011;64873;50.102;14.434;2023-01-04T07:24:05;12.52;;;5.90;;
76127;SDS011;64873;50.102;14.434;2023-01-04T07:26:34;10.85;;;6.35;;
76127;SDS011;64873;50.102;14.434;2023-01-04T07:29:00;12.80;;;6.05;;
76127;SDS011;64873;50.102;14.434;2023-01-04T07:31:42;12.10;;;5.60;;
76127;SDS011;64873;50.102;14.434;2023-01-04T07:34:09;13.10;;;5.82;;
76127;SDS011;64873;50.102;14.434;2023-01-04T07:36:35;12.27;;;5.95;;
76127;SDS011;64873;50.102;14.434;2023-01-04T07:39:00;15.15;;;5.80;;
76127;SDS011;64873;50.102;14.434;2023-01-04T07:41:34;11.50;;;5.85;;
76127;SDS011;64873;50.102;14.434;2023-01-04T07:44:01;12.57;;;5.95;;
76127;SDS011;64873;50.102;14.434;2023-01-04T07:46:26;11.27;;;5.93;;
76127;SDS011;64873;50.102;14.434;2023-01-04T07:48:52;11.82;;;6.10;;
76127;SDS011;64873;50.102;14.434;2023-01-04T07:51:17;11.40;;;5.45;;
76127;SDS011;64873;50.102;14.434;2023-01-04T07:53:43;9.93;;;5.32;;
76127;SDS011;64873;50.102;14.434;2023-01-04T07:56:08;11.45;;;5.15;;
76127;SDS011;64873;50.102;14.434;2023-01-04T07:58:36;12.15;;;5.70;;
76127;SDS011;64873;50.102;14.434;2023-01-04T08:01:13;9.93;;;5.38;;
76127;SDS011;64873;50.102;14.434;2023-01-04T08:03:40;9.95;;;5.55;;
76127;SDS011;64873;50.102;14.434;2023-01-04T08:06:07;7.07;;;4.93;;
76127;SDS011;64873;50.102;14.434;2023-01-04T08:08:34;9.10;;;5.10;;
76127;SDS011;64873;50.102;14.434;2023-01-04T08:11:01;9.27;;;5.18;;
76127;SDS011;64873;50.102;14.434;2023-01-04T08:13:27;13.80;;;5.32;;
76127;SDS011;64873;50.102;14.434;2023-01-04T08:15:53;11.85;;;5.50;;
76127;SDS011;64873;50.102;14.434;2023-01-04T08:18:19;11.75;;;5.28;;
76127;SDS011;64873;50.102;14.434;2023-01-04T08:20:47;11.00;;;5.47;;
76127;SDS011;64873;50.102;14.434;2023-01-04T08:23:13;10.43;;;5.68;;
76127;SDS011;64873;50.102;14.434;2023-01-04T08:25:38;11.77;;;5.75;;
76127;SDS011;64873;50.102;14.434;2023-01-04T08:28:04;8.80;;;5.30;;
76127;SDS011;64873;50.102;14.434;2023-01-04T08:30:30;9.60;;;5.43;;
76127;SDS011;64873;50.102;14.434;2023-01-04T08:32:56;16.50;;;6.03;;
76127;SDS011;64873;50.102;14.434;2023-01-04T08:35:27;8.38;;;4.88;;
76127;SDS011;64873;50.102;14.434;2023-01-04T08:38:12;13.13;;;5.63;;
76127;SDS011;64873;50.102;14.434;2023-01-04T08:40:38;7.63;;;4.88;;
76127;SDS011;64873;50.102;14.434;2023-01-04T08:43:03;9.25;;;5.22;;
76127;SDS011;64873;50.102;14.434;2023-01-04T08:45:29;15.20;;;5.00;;
76127;SDS011;64873;50.102;14.434;2023-01-04T08:47:54;11.02;;;5.38;;
76127;SDS011;64873;50.102;14.434;2023-01-04T08:50:20;11.77;;;5.43;;
76127;SDS011;64873;50.102;14.434;2023-01-04T08:52:45;14.18;;;6.35;;
76127;SDS011;64873;50.102;14.434;2023-01-04T08:55:11;9.65;;;5.30;;
76127;SDS011;64873;50.102;14.434;2023-01-04T08:57:37;15.02;;;5.55;;
76127;SDS011;64873;50.102;14.434;2023-01-04T09:00:03;11.88;;;5.82;;
76127;SDS011;64873;50.102;14.434;2023-01-04T09:02:29;11.73;;;5.60;;
76127;SDS011;64873;50.102;14.434;2023-01-04T09:04:54;12.43;;;5.53;;
76127;SDS011;64873;50.102;14.434;2023-01-04T09:07:24;9.05;;;5.63;;
76127;SDS011;64873;50.102;14.434;2023-01-04T09:09:50;11.32;;;6.28;;
76127;SDS011;64873;50.102;14.434;2023-01-04T09:12:15;11.65;;;6.45;;
76127;SDS011;64873;50.102;14.434;2023-01-04T09:14:41;14.65;;;6.32;;
76127;SDS011;64873;50.102;14.434;2023-01-04T09:17:06;12.13;;;6.20;;
76127;SDS011;64873;50.102;14.434;2023-01-04T09:19:32;12.93;;;6.20;;
76127;SDS011;64873;50.102;14.434;2023-01-04T09:21:57;10.02;;;5.95;;
76127;SDS011;64873;50.102;14.434;2023-01-04T09:24:23;12.77;;;6.45;;
76127;SDS011;64873;50.102;14.434;2023-01-04T09:26:49;10.75;;;5.65;;
76127;SDS011;64873;50.102;14.434;2023-01-04T09:29:14;9.38;;;5.28;;
76127;SDS011;64873;50.102;14.434;2023-01-04T09:31:39;11.10;;;5.97;;
76127;SDS011;64873;50.102;14.434;2023-01-04T09:34:05;12.00;;;5.68;;
76127;SDS011;64873;50.102;14.434;2023-01-04T09:36:31;16.17;;;6.13;;
76127;SDS011;64873;50.102;14.434;2023-01-04T09:38:56;15.52;;;6.43;;
76127;SDS011;64873;50.102;14.434;2023-01-04T09:41:27;15.48;;;6.85;;
76127;SDS011;64873;50.102;14.434;2023-01-04T09:43:55;12.80;;;6.60;;
76127;SDS011;64873;50.102;14.434;2023-01-04T09:46:37;14.73;;;6.97;;
76127;SDS011;64873;50.102;14.434;2023-01-04T09:55:20;12.23;;;6.00;;
76127;SDS011;64873;50.102;14.434;2023-01-04T09:57:52;10.50;;;5.55;;
76127;SDS011;64873;50.102;14.434;2023-01-04T10:00:29;12.00;;;6.15;;
76127;SDS011;64873;50.102;14.434;2023-01-04T10:05:37;12.38;;;5.40;;
76127;SDS011;64873;50.102;14.434;2023-01-04T10:08:04;13.73;;;5.93;;
76127;SDS011;64873;50.102;14.434;2023-01-04T10:16:35;10.63;;;5.82;;
76127;SDS011;64873;50.102;14.434;2023-01-04T10:21:49;11.00;;;5.22;;
76127;SDS011;64873;50.102;14.434;2023-01-04T10:27:08;14.15;;;5.70;;
76127;SDS011;64873;50.102;14.434;2023-01-04T10:29:58;10.00;;;5.55;;
76127;SDS011;64873;50.102;14.434;2023-01-04T10:32:41;14.32;;;6.03;;
76127;SDS011;64873;50.102;14.434;2023-01-04T10:37:58;10.55;;;5.22;;
76127;SDS011;64873;50.102;14.434;2023-01-04T10:40:30;10.48;;;5.28;;
76127;SDS011;64873;50.102;14.434;2023-01-04T10:43:03;12.40;;;5.85;;
76127;SDS011;64873;50.102;14.434;2023-01-04T10:48:48;14.40;;;6.05;;
76127;SDS011;64873;50.102;14.434;2023-01-04T10:51:17;12.60;;;6.07;;
76127;SDS011;64873;50.102;14.434;2023-01-04T10:53:51;8.32;;;4.85;;
76127;SDS011;64873;50.102;14.434;2023-01-04T11:01:44;8.80;;;5.15;;
76127;SDS011;64873;50.102;14.434;2023-01-04T11:07:20;9.55;;;5.45;;
76127;SDS011;64873;50.102;14.434;2023-01-04T11:10:52;9.40;;;4.75;;
76127;SDS011;64873;50.102;14.434;2023-01-04T11:13:06;8.77;;;4.95;;
76127;SDS011;64873;50.102;14.434;2023-01-04T11:15:32;10.65;;;5.07;;
76127;SDS011;64873;50.102;14.434;2023-01-04T11:17:59;9.32;;;4.88;;
76127;SDS011;64873;50.102;14.434;2023-01-04T11:20:30;9.52;;;5.28;;
76127;SDS011;64873;50.102;14.434;2023-01-04T11:23:09;13.25;;;5.25;;
76127;SDS011;64873;50.102;14.434;2023-01-04T11:25:42;19.88;;;5.78;;
76127;SDS011;64873;50.102;14.434;2023-01-04T11:28:15;15.55;;;5.95;;
76127;SDS011;64873;50.102;14.434;2023-01-04T11:33:21;16.80;;;5.32;;
76127;SDS011;64873;50.102;14.434;2023-01-04T11:35:52;10.30;;;5.13;;
76127;SDS011;64873;50.102;14.434;2023-01-04T11:38:22;13.13;;;5.85;;
76127;SDS011;64873;50.102;14.434;2023-01-04T11:40:53;10.23;;;5.47;;
76127;SDS011;64873;50.102;14.434;2023-01-04T11:43:21;9.50;;;4.90;;
76127;SDS011;64873;50.102;14.434;2023-01-04T11:45:55;9.50;;;5.28;;
76127;SDS011;64873;50.102;14.434;2023-01-04T11:48:41;10.85;;;5.00;;
76127;SDS011;64873;50.102;14.434;2023-01-04T11:57:02;9.27;;;5.43;;
76127;SDS011;64873;50.102;14.434;2023-01-04T11:59:41;7.95;;;4.95;;
76127;SDS011;64873;50.102;14.434;2023-01-04T12:02:18;13.77;;;5.28;;
76127;SDS011;64873;50.102;14.434;2023-01-04T12:04:44;9.30;;;4.72;;
76127;SDS011;64873;50.102;14.434;2023-01-04T12:07:21;10.48;;;4.60;;
76127;SDS011;64873;50.102;14.434;2023-01-04T12:09:57;9.10;;;4.80;;
76127;SDS011;64873;50.102;14.434;2023-01-04T12:12:27;8.25;;;4.28;;
76127;SDS011;64873;50.102;14.434;2023-01-04T12:14:55;8.88;;;4.05;;
76127;SDS011;64873;50.102;14.434;2023-01-04T12:17:24;7.45;;;4.18;;
76127;SDS011;64873;50.102;14.434;2023-01-04T12:20:00;10.27;;;3.83;;
76127;SDS011;64873;50.102;14.434;2023-01-04T12:22:36;6.30;;;3.67;;
76127;SDS011;64873;50.102;14.434;2023-01-04T12:25:04;6.82;;;3.72;;
76127;SDS011;64873;50.102;14.434;2023-01-04T12:27:47;4.40;;;2.75;;
76127;SDS011;64873;50.102;14.434;2023-01-04T12:36:02;4.55;;;2.90;;
76127;SDS011;64873;50.102;14.434;2023-01-04T12:41:13;5.78;;;2.97;;
76127;SDS011;64873;50.102;14.434;2023-01-04T12:43:38;5.88;;;3.00;;
76127;SDS011;64873;50.102;14.434;2023-01-04T12:57:38;5.32;;;2.90;;
76127;SDS011;64873;50.102;14.434;2023-01-04T13:00:07;4.05;;;2.50;;
76127;SDS011;64873;50.102;14.434;2023-01-04T13:02:42;6.45;;;3.60;;
76127;SDS011;64873;50.102;14.434;2023-01-04T13:07:46;5.18;;;3.08;;
76127;SDS011;64873;50.102;14.434;2023-01-04T13:16:18;4.88;;;3.10;;
76127;SDS011;64873;50.102;14.434;2023-01-04T13:18:39;6.38;;;3.05;;
76127;SDS011;64873;50.102;14.434;2023-01-04T13:21:11;5.50;;;3.03;;
76127;SDS011;64873;50.102;14.434;2023-01-04T13:23:39;4.82;;;3.05;;
76127;SDS011;64873;50.102;14.434;2023-01-04T13:26:25;4.50;;;2.60;;
76127;SDS011;64873;50.102;14.434;2023-01-04T13:29:05;5.07;;;3.13;;
76127;SDS011;64873;50.102;14.434;2023-01-04T13:37:31;7.85;;;3.40;;
76127;SDS011;64873;50.102;14.434;2023-01-04T13:42:41;5.88;;;2.97;;
76127;SDS011;64873;50.102;14.434;2023-01-04T13:47:50;5.00;;;2.85;;
76127;SDS011;64873;50.102;14.434;2023-01-04T13:50:27;5.28;;;3.13;;
76127;SDS011;64873;50.102;14.434;2023-01-04T13:53:00;5.18;;;2.40;;
76127;SDS011;64873;50.102;14.434;2023-01-04T13:55:27;5.18;;;3.10;;
76127;SDS011;64873;50.102;14.434;2023-01-04T13:57:55;4.80;;;2.80;;
76127;SDS011;64873;50.102;14.434;2023-01-04T14:00:25;5.80;;;3.00;;
76127;SDS011;64873;50.102;14.434;2023-01-04T14:03:06;5.50;;;2.75;;
76127;SDS011;64873;50.102;14.434;2023-01-04T14:05:43;6.80;;;3.50;;
76127;SDS011;64873;50.102;14.434;2023-01-04T14:08:13;6.05;;;2.95;;
76127;SDS011;64873;50.102;14.434;2023-01-04T14:10:44;5.07;;;3.10;;
76127;SDS011;64873;50.102;14.434;2023-01-04T14:13:13;7.90;;;3.40;;
76127;SDS011;64873;50.102;14.434;2023-01-04T14:15:41;6.23;;;3.43;;
76127;SDS011;64873;50.102;14.434;2023-01-04T14:18:22;8.27;;;3.25;;
76127;SDS011;64873;50.102;14.434;2023-01-04T14:20:50;8.30;;;4.13;;
76127;SDS011;64873;50.102;14.434;2023-01-04T14:23:26;5.43;;;3.50;;
76127;SDS011;64873;50.102;14.434;2023-01-04T14:25:56;4.85;;;3.33;;
76127;SDS011;64873;50.102;14.434;2023-01-04T14:33:32;5.68;;;3.33;;
76127;SDS011;64873;50.102;14.434;2023-01-04T14:36:13;8.07;;;4.15;;
76127;SDS011;64873;50.102;14.434;2023-01-04T14:38:44;5.68;;;3.63;;
76127;SDS011;64873;50.102;14.434;2023-01-04T14:46:20;13.25;;;3.90;;
76127;SDS011;64873;50.102;14.434;2023-01-04T14:48:46;6.30;;;3.58;;
76127;SDS011;64873;50.102;14.434;2023-01-04T14:51:15;6.80;;;3.90;;
76127;SDS011;64873;50.102;14.434;2023-01-04T14:53:43;5.90;;;3.88;;
76127;SDS011;64873;50.102;14.434;2023-01-04T14:56:14;6.95;;;3.90;;
76127;SDS011;64873;50.102;14.434;2023-01-04T14:58:41;5.13;;;3.20;;
76127;SDS011;64873;50.102;14.434;2023-01-04T15:01:08;5.72;;;3.50;;
76127;SDS011;64873;50.102;14.434;2023-01-04T15:03:34;5.45;;;3.42;;
76127;SDS011;64873;50.102;14.434;2023-01-04T15:05:59;7.32;;;3.92;;
76127;SDS011;64873;50.102;14.434;2023-01-04T15:08:25;6.35;;;3.95;;
76127;SDS011;64873;50.102;14.434;2023-01-04T15:10:50;5.45;;;3.80;;
76127;SDS011;64873;50.102;14.434;2023-01-04T15:13:16;5.25;;;3.63;;
76127;SDS011;64873;50.102;14.434;2023-01-04T15:15:41;9.27;;;3.97;;
76127;SDS011;64873;50.102;14.434;2023-01-04T15:18:07;6.93;;;4.00;;
76127;SDS011;64873;50.102;14.434;2023-01-04T15:20:37;6.65;;;4.10;;
76127;SDS011;64873;50.102;14.434;2023-01-04T15:23:03;5.47;;;3.17;;
76127;SDS011;64873;50.102;14.434;2023-01-04T15:25:29;6.18;;;3.30;;
76127;SDS011;64873;50.102;14.434;2023-01-04T15:27:55;5.57;;;3.50;;
76127;SDS011;64873;50.102;14.434;2023-01-04T15:30:21;7.95;;;3.67;;
76127;SDS011;64873;50.102;14.434;2023-01-04T15:32:46;6.15;;;3.78;;
76127;SDS011;64873;50.102;14.434;2023-01-04T15:35:12;5.10;;;3.42;;
76127;SDS011;64873;50.102;14.434;2023-01-04T15:37:44;6.93;;;3.40;;
76127;SDS011;64873;50.102;14.434;2023-01-04T15:40:11;5.43;;;3.17;;
76127;SDS011;64873;50.102;14.434;2023-01-04T15:42:39;6.45;;;3.60;;
76127;SDS011;64873;50.102;14.434;2023-01-04T15:45:43;4.93;;;3.45;;
76127;SDS011;64873;50.102;14.434;2023-01-04T15:48:10;9.38;;;3.45;;
76127;SDS011;64873;50.102;14.434;2023-01-04T15:50:37;6.20;;;3.80;;
76127;SDS011;64873;50.102;14.434;2023-01-04T15:53:05;10.13;;;3.80;;
76127;SDS011;64873;50.102;14.434;2023-01-04T15:55:32;6.07;;;3.80;;
76127;SDS011;64873;50.102;14.434;2023-01-04T15:57:59;5.88;;;3.53;;
76127;SDS011;64873;50.102;14.434;2023-01-04T16:00:25;7.85;;;3.80;;
76127;SDS011;64873;50.102;14.434;2023-01-04T16:02:54;7.03;;;3.80;;
76127;SDS011;64873;50.102;14.434;2023-01-04T16:05:20;7.10;;;3.80;;
76127;SDS011;64873;50.102;14.434;2023-01-04T16:07:46;9.35;;;3.47;;
76127;SDS011;64873;50.102;14.434;2023-01-04T16:10:12;6.50;;;3.65;;
76127;SDS011;64873;50.102;14.434;2023-01-04T16:12:38;5.68;;;3.40;;
76127;SDS011;64873;50.102;14.434;2023-01-04T16:15:07;7.25;;;3.83;;
76127;SDS011;64873;50.102;14.434;2023-01-04T16:17:33;5.93;;;3.35;;
76127;SDS011;64873;50.102;14.434;2023-01-04T16:19:59;8.27;;;3.90;;
76127;SDS011;64873;50.102;14.434;2023-01-04T16:22:24;6.95;;;3.40;;
76127;SDS011;64873;50.102;14.434;2023-01-04T16:24:50;7.15;;;4.13;;
76127;SDS011;64873;50.102;14.434;2023-01-04T16:27:16;5.20;;;3.10;;
76127;SDS011;64873;50.102;14.434;2023-01-04T16:29:41;8.35;;;3.67;;
76127;SDS011;64873;50.102;14.434;2023-01-04T16:32:07;4.85;;;3.17;;
76127;SDS011;64873;50.102;14.434;2023-01-04T16:34:32;5.53;;;3.13;;